Meath Environmental Platform

Observations for Trim Patrick St

Time AQI Temp °C Hum % Pres Pa CO μg/m³ H₂S μg/m³ NO μg/m³ NO₂ μg/m³ O₃ μg/m³ SO₂ μg/m³ PM1 μg/m³ PM2.5 μg/m³ PM10 μg/m³
Thursday 27 August 2026
18:32 3 20.5 77 38,460 0 3.83 1.05 13.07 56.21 2.7 14.86 23.12 25.44
18:31 3 20.5 77 38,460 0 3.93 0.93 14.25 49.84 2.87 16.57 23.83 26.21
18:30 3 20.6 76 38,460 0 3.72 0.9 14.02 53.58 2.55 15.71 22.43 24.67
18:29 3 20.6 76 38,460 0 3.54 1.09 14.51 53.18 2.7 15.71 22.43 24.67
18:28 3 20.6 76 38,460 0 3.25 1.04 14.17 50.84 2.75 14.86 21.01 23.11
18:27 3 20.6 76 38,460 0 3.06 0.7 13.03 54.81 2.28 15.71 23.15 25.46
18:26 3 20.6 76 38,460 0 4.22 1.01 13.42 53.75 2.58 15.71 22.44 24.68
18:25 3 20.6 76 38,460 0.18 8.31 0.96 19.1 45.55 2.46 17.43 23.85 26.24
18:24 3 20.6 76 38,460 0.65 9.65 0.68 16.95 49.51 4.1 17.43 25.28 27.81
18:23 3 20.6 76 38,460 0.05 5.7 0.72 25.32 45.01 2.77 16.57 25.28 27.81
18:22 3 20.6 76 38,460 0 3.67 0.9 13.41 53.15 2.66 15.71 23.16 25.47
18:21 3 20.6 76 38,460 0 4.09 0.66 16.04 50.92 2.35 16.57 24.57 27.03
18:20 3 20.6 76 38,460 0 2.98 0.78 13.84 52.78 1.88 17.43 25.29 27.82
18:19 3 20.6 76 38,460 0 2.9 1.21 13.56 52.91 2.32 16.57 23.87 26.25
18:18 3 20.6 76 38,460 0 3.91 1.09 13.72 53.75 3.07 14.86 23.16 25.47
18:17 3 20.6 76 38,460 0 5.72 1.06 23.5 49.27 2.67 18.29 27.42 30.16
18:16 3 20.6 76 38,460 0 3.77 1.08 16.94 46.41 2.24 17.43 25.31 27.84
18:15 3 20.7 76 38,460 0 3.77 1.06 14.58 51 2.79 18.29 26.02 28.62
18:14 3 20.7 76 38,460 0 4.59 0.64 20.59 43.12 3.03 17.43 24.59 27.05
18:13 3 20.7 76 38,460 0 5.14 0.86 28.49 45.29 1.97 18.29 26.03 28.63